Time;durP1;ratioP1;P1;durP2;ratioP2;P2;SDS_P1;SDS_P2;PMS_P1;PMS_P2;Temp;Humidity;BMP_temperature;BMP_pressure;BME280_temperature;BME280_humidity;BME280_pressure;Samples;Min_cycle;Max_cycle;Signal;HPM_P1;HPM_P2
2021/09/20 00:01:17;;;;;;;2.25;1.25;;;16.60;67.70;;;;;;5045890;28;20075;-40
2021/09/20 00:04:02;;;;;;;2.80;1.50;;;16.60;67.70;;;;;;5045807;28;20029;-40
2021/09/20 00:06:46;;;;;;;2.65;1.40;;;16.60;68.00;;;;;;5045802;28;20037;-40
2021/09/20 00:09:31;;;;;;;2.47;1.58;;;16.60;68.00;;;;;;5045748;28;20025;-40
2021/09/20 00:12:15;;;;;;;2.45;1.80;;;16.60;68.20;;;;;;5045670;28;20048;-40
2021/09/20 00:14:59;;;;;;;2.38;1.60;;;16.60;68.20;;;;;;5046026;28;20029;-40
2021/09/20 00:17:43;;;;;;;2.78;1.50;;;16.60;68.10;;;;;;5045727;28;20344;-40
2021/09/20 00:20:28;;;;;;;2.35;1.40;;;16.60;68.10;;;;;;5045892;28;20040;-40
2021/09/20 00:23:12;;;;;;;2.22;1.30;;;16.60;68.20;;;;;;5045452;28;20221;-42
2021/09/20 00:25:58;;;;;;;2.92;1.70;;;16.60;68.40;;;;;;5045655;28;20087;-40
2021/09/20 00:28:42;;;;;;;3.08;1.80;;;16.60;68.30;;;;;;5045373;28;20059;-40
2021/09/20 00:31:27;;;;;;;3.20;1.67;;;16.60;68.40;;;;;;5045513;28;20029;-40
2021/09/20 00:34:11;;;;;;;2.10;1.55;;;16.60;68.30;;;;;;5045267;28;20352;-40
2021/09/20 00:36:55;;;;;;;3.40;1.40;;;16.60;68.20;;;;;;5045188;28;20048;-40
2021/09/20 00:39:39;;;;;;;4.32;1.60;;;16.50;68.20;;;;;;5045069;28;20241;-40
2021/09/20 00:42:24;;;;;;;3.20;1.90;;;16.60;68.20;;;;;;5044067;28;20028;-40
2021/09/20 00:45:08;;;;;;;4.20;1.85;;;16.60;68.20;;;;;;5045460;28;20024;-40
2021/09/20 00:47:52;;;;;;;2.40;1.80;;;16.50;68.20;;;;;;5045157;28;20421;-40
2021/09/20 00:50:36;;;;;;;2.20;1.40;;;16.50;68.40;;;;;;5044562;28;20068;-40
2021/09/20 00:53:21;;;;;;;2.33;1.63;;;16.50;68.10;;;;;;5045192;28;20036;-40
2021/09/20 00:56:05;;;;;;;2.60;1.70;;;16.50;68.10;;;;;;5044815;28;20036;-40
2021/09/20 00:58:49;;;;;;;2.08;1.50;;;16.50;68.00;;;;;;5044758;28;20067;-40
2021/09/20 01:01:33;;;;;;;2.53;1.60;;;16.60;68.20;;;;;;5045088;28;20216;-40
2021/09/20 01:04:18;;;;;;;2.85;1.45;;;16.50;68.20;;;;;;5044719;28;20032;-40
2021/09/20 01:07:02;;;;;;;4.13;2.03;;;16.50;68.30;;;;;;5044661;28;20045;-40
2021/09/20 01:09:46;;;;;;;2.53;1.73;;;16.50;68.10;;;;;;5043666;28;20089;-40
2021/09/20 01:12:31;;;;;;;3.03;1.95;;;16.50;68.00;;;;;;5044525;28;20040;-40
2021/09/20 01:15:15;;;;;;;2.67;1.98;;;16.50;67.90;;;;;;5044435;28;20029;-41
2021/09/20 01:17:59;;;;;;;2.15;1.70;;;16.60;67.70;;;;;;5044910;28;20213;-40
2021/09/20 01:20:43;;;;;;;2.63;1.70;;;16.60;67.60;;;;;;5044471;28;20099;-40
2021/09/20 01:23:27;;;;;;;3.35;2.00;;;16.60;67.80;;;;;;5044595;28;20035;-40
2021/09/20 01:26:12;;;;;;;3.90;1.83;;;16.50;67.90;;;;;;5044643;28;20091;-40
2021/09/20 01:28:56;;;;;;;2.30;1.65;;;16.50;67.70;;;;;;5044561;28;20028;-40
2021/09/20 01:31:41;;;;;;;2.45;1.60;;;16.50;67.80;;;;;;5044457;28;20036;-40
2021/09/20 01:34:25;;;;;;;3.90;1.88;;;16.50;67.90;;;;;;5044365;28;20080;-40
2021/09/20 01:37:09;;;;;;;3.17;2.10;;;16.50;68.00;;;;;;5044261;28;20032;-40
2021/09/20 01:39:54;;;;;;;3.53;2.03;;;16.60;67.80;;;;;;5044068;28;20221;-40
2021/09/20 01:42:39;;;;;;;2.88;2.00;;;16.50;67.70;;;;;;5044110;28;20102;-40
2021/09/20 01:45:26;;;;;;;3.47;2.10;;;16.60;67.70;;;;;;5043964;28;20355;-40
2021/09/20 01:48:10;;;;;;;2.83;1.90;;;16.60;67.80;;;;;;5044738;28;20020;-40
2021/09/20 01:50:54;;;;;;;3.40;2.08;;;16.60;67.90;;;;;;5044057;28;20036;-40
2021/09/20 01:53:39;;;;;;;3.83;2.33;;;16.50;68.00;;;;;;5043909;28;20036;-40
2021/09/20 01:56:23;;;;;;;3.70;2.67;;;16.40;68.20;;;;;;5044303;28;20036;-40
2021/09/20 01:59:08;;;;;;;4.20;2.95;;;16.40;68.20;;;;;;5043739;28;20232;-40
2021/09/20 02:01:52;;;;;;;4.55;2.90;;;16.40;68.20;;;;;;5043925;28;20067;-40
2021/09/20 02:04:36;;;;;;;3.85;2.97;;;16.40;68.10;;;;;;5043785;28;20037;-40
2021/09/20 02:07:20;;;;;;;3.78;2.63;;;16.40;68.20;;;;;;5043719;28;20028;-40
2021/09/20 02:10:05;;;;;;;3.65;2.90;;;16.30;68.30;;;;;;5043771;28;20043;-40
2021/09/20 02:12:49;;;;;;;3.35;2.40;;;16.40;68.20;;;;;;5043544;28;20154;-41
2021/09/20 02:15:34;;;;;;;4.10;2.58;;;16.30;68.40;;;;;;5043634;28;20113;-40
2021/09/20 02:18:18;;;;;;;6.47;3.95;;;16.30;68.30;;;;;;5043592;28;20029;-40
2021/09/20 02:21:06;;;;;;;7.20;5.20;;;16.30;68.30;;;;;;5044545;28;20054;-39
2021/09/20 02:23:50;;;;;;;7.30;5.25;;;16.40;68.10;;;;;;5043465;28;20032;-40
2021/09/20 02:26:34;;;;;;;7.18;5.53;;;16.40;67.80;;;;;;5044015;28;20059;-40
2021/09/20 02:29:19;;;;;;;7.65;5.50;;;16.40;67.50;;;;;;5043927;28;20037;-40
2021/09/20 02:32:04;;;;;;;8.75;5.43;;;16.40;67.40;;;;;;5043448;28;20087;-39
2021/09/20 02:34:48;;;;;;;6.97;5.47;;;16.40;67.10;;;;;;5044042;28;20043;-40
2021/09/20 02:37:32;;;;;;;6.63;5.50;;;16.40;67.40;;;;;;5043633;28;20047;-40
2021/09/20 02:40:16;;;;;;;6.88;5.40;;;16.50;67.50;;;;;;5043446;28;20103;-40
2021/09/20 02:43:01;;;;;;;7.53;5.65;;;16.50;67.30;;;;;;5043484;28;20040;-40
2021/09/20 02:45:45;;;;;;;7.35;6.05;;;16.50;66.90;;;;;;5043334;28;20351;-40
2021/09/20 02:48:30;;;;;;;8.50;5.80;;;16.50;66.80;;;;;;5043259;28;20096;-40
2021/09/20 02:51:14;;;;;;;8.48;6.07;;;16.50;67.10;;;;;;5043704;28;20060;-40
2021/09/20 02:53:58;;;;;;;7.05;5.38;;;16.50;66.80;;;;;;5043714;28;20036;-40
2021/09/20 02:56:42;;;;;;;8.25;6.03;;;16.50;66.60;;;;;;5043390;28;20037;-40
2021/09/20 02:59:27;;;;;;;8.55;6.38;;;16.50;66.40;;;;;;5043582;28;20079;-40
2021/09/20 03:02:12;;;;;;;9.45;6.00;;;16.50;66.40;;;;;;5043600;28;20076;-40
2021/09/20 03:04:56;;;;;;;9.25;6.32;;;16.50;66.00;;;;;;5043131;28;20072;-40
2021/09/20 03:07:40;;;;;;;8.55;6.40;;;16.50;66.20;;;;;;5043039;28;20076;-40
2021/09/20 03:10:24;;;;;;;8.63;6.65;;;16.50;66.30;;;;;;5043065;28;20044;-40
2021/09/20 03:13:09;;;;;;;8.55;6.40;;;16.50;66.20;;;;;;5043059;28;20028;-40
2021/09/20 03:15:53;;;;;;;9.93;6.60;;;16.50;65.90;;;;;;5046700;28;20352;-40
2021/09/20 03:18:37;;;;;;;10.90;6.60;;;16.50;66.20;;;;;;5046652;28;20081;-40
2021/09/20 03:21:23;;;;;;;7.63;6.35;;;16.50;65.80;;;;;;5046621;28;20031;-40
2021/09/20 03:24:10;;;;;;;9.32;7.20;;;16.50;65.80;;;;;;5046848;28;20106;-40
2021/09/20 03:26:54;;;;;;;9.15;6.78;;;16.50;65.50;;;;;;5046629;28;20375;-40
2021/09/20 03:29:38;;;;;;;9.23;6.68;;;16.50;65.70;;;;;;5046478;28;20083;-40
2021/09/20 03:32:23;;;;;;;8.60;6.60;;;16.40;66.10;;;;;;5045512;28;20224;-40
2021/09/20 03:35:07;;;;;;;9.27;6.95;;;16.40;66.10;;;;;;5046793;28;20343;-40
2021/09/20 03:37:51;;;;;;;8.52;7.22;;;16.40;65.80;;;;;;5046835;28;20037;-40
2021/09/20 03:40:35;;;;;;;10.55;7.45;;;16.40;65.60;;;;;;5046494;28;20048;-39
2021/09/20 03:43:20;;;;;;;8.90;6.88;;;16.40;65.80;;;;;;5046473;28;20048;-40
2021/09/20 03:46:04;;;;;;;13.05;7.80;;;16.40;65.90;;;;;;5046306;28;20087;-40
2021/09/20 03:48:48;;;;;;;11.88;7.63;;;16.40;65.40;;;;;;5046151;28;20044;-40
2021/09/20 03:51:33;;;;;;;10.20;7.55;;;16.40;65.90;;;;;;5045097;28;20075;-40
2021/09/20 03:54:17;;;;;;;8.82;7.05;;;16.40;65.60;;;;;;5045924;28;20052;-41
2021/09/20 03:57:02;;;;;;;10.00;7.60;;;16.40;65.50;;;;;;5046342;28;20028;-40
2021/09/20 03:59:46;;;;;;;10.98;7.40;;;16.30;65.60;;;;;;5046081;28;20036;-40
2021/09/20 04:02:30;;;;;;;10.05;7.43;;;16.30;65.40;;;;;;5046448;28;20036;-40
2021/09/20 04:05:15;;;;;;;9.88;7.55;;;16.40;65.40;;;;;;5046218;28;20037;-40
2021/09/20 04:07:59;;;;;;;13.27;8.40;;;16.40;65.50;;;;;;5045904;28;20032;-40
2021/09/20 04:10:43;;;;;;;10.52;8.27;;;16.30;65.40;;;;;;5045756;28;20108;-40
2021/09/20 04:13:28;;;;;;;12.45;7.78;;;16.30;65.50;;;;;;5045635;28;20072;-40
2021/09/20 04:16:12;;;;;;;10.05;7.68;;;16.30;66.00;;;;;;5045606;28;20064;-40
2021/09/20 04:18:56;;;;;;;11.40;7.80;;;16.30;66.20;;;;;;5045547;28;20076;-39
2021/09/20 04:21:41;;;;;;;11.45;8.15;;;16.30;66.10;;;;;;5045490;28;20064;-40
2021/09/20 04:24:25;;;;;;;13.10;7.82;;;16.30;66.70;;;;;;5045134;28;20079;-40
2021/09/20 04:27:09;;;;;;;18.05;8.52;;;16.30;66.60;;;;;;5045861;28;20036;-40
2021/09/20 04:29:53;;;;;;;10.93;7.72;;;16.30;67.00;;;;;;5045479;28;20217;-40
2021/09/20 04:32:38;;;;;;;9.93;7.78;;;16.30;66.60;;;;;;5045354;28;20033;-40
2021/09/20 04:35:22;;;;;;;13.70;8.60;;;16.30;66.60;;;;;;5045833;28;20033;-40
2021/09/20 04:38:07;;;;;;;10.60;8.10;;;16.30;66.30;;;;;;5045398;28;20032;-40
2021/09/20 04:40:51;;;;;;;9.68;7.68;;;16.20;66.50;;;;;;5045438;28;20043;-40
2021/09/20 04:43:36;;;;;;;10.88;8.52;;;16.20;66.30;;;;;;5045377;28;20056;-40
2021/09/20 04:46:20;;;;;;;11.35;7.40;;;16.20;66.10;;;;;;5045623;28;20048;-40
2021/09/20 04:49:04;;;;;;;14.77;8.75;;;16.20;66.50;;;;;;5044893;28;20029;-40
2021/09/20 04:51:49;;;;;;;11.13;8.32;;;16.20;66.50;;;;;;5045043;28;20079;-39
2021/09/20 04:54:33;;;;;;;12.57;8.52;;;16.20;66.20;;;;;;5044838;28;20225;-41
2021/09/20 04:57:17;;;;;;;12.20;8.30;;;16.20;66.00;;;;;;5044742;28;20424;-40
2021/09/20 05:00:04;;;;;;;14.23;9.07;;;16.20;66.30;;;;;;5045062;28;20063;-40
2021/09/20 05:02:48;;;;;;;11.55;8.35;;;16.20;65.80;;;;;;5044943;28;20084;-40
2021/09/20 05:05:32;;;;;;;12.90;8.98;;;16.20;65.70;;;;;;5045122;28;20040;-40
2021/09/20 05:08:17;;;;;;;12.75;9.15;;;16.10;65.40;;;;;;5044555;28;20064;-40
2021/09/20 05:11:01;;;;;;;14.48;8.70;;;16.10;65.40;;;;;;5044522;28;20375;-40
2021/09/20 05:13:45;;;;;;;12.38;8.70;;;16.10;65.70;;;;;;5044776;28;20028;-40
2021/09/20 05:16:30;;;;;;;15.25;8.82;;;16.00;65.70;;;;;;5044462;28;20078;-40
2021/09/20 05:19:14;;;;;;;11.07;8.55;;;16.00;65.80;;;;;;5044282;28;20067;-41
2021/09/20 05:21:59;;;;;;;15.10;9.05;;;16.10;65.90;;;;;;5044229;28;20052;-41
2021/09/20 05:24:44;;;;;;;13.80;9.00;;;16.00;66.10;;;;;;5044124;28;20040;-40
2021/09/20 05:27:29;;;;;;;13.52;9.18;;;16.00;65.70;;;;;;5044505;28;20232;-40
2021/09/20 05:30:13;;;;;;;12.52;8.98;;;16.10;65.40;;;;;;5044567;28;20427;-40
2021/09/20 05:32:58;;;;;;;13.85;8.88;;;16.00;65.10;;;;;;5044124;28;20041;-41
2021/09/20 05:35:43;;;;;;;12.48;8.63;;;16.00;65.20;;;;;;5044252;28;20036;-40
2021/09/20 05:38:27;;;;;;;11.52;8.70;;;15.90;65.80;;;;;;5042580;28;20107;-40
2021/09/20 05:41:11;;;;;;;12.65;9.27;;;16.00;65.60;;;;;;5044513;28;20136;-40
2021/09/20 05:43:55;;;;;;;12.90;9.30;;;16.00;65.20;;;;;;5043910;28;20244;-40
2021/09/20 05:46:39;;;;;;;13.20;8.48;;;15.90;65.70;;;;;;5044097;28;20097;-40
2021/09/20 05:49:24;;;;;;;12.40;9.10;;;16.00;65.70;;;;;;5043753;28;20256;-40
2021/09/20 05:52:08;;;;;;;12.55;9.00;;;16.00;65.30;;;;;;5043983;28;20032;-40
2021/09/20 05:54:53;;;;;;;10.85;8.50;;;16.00;65.40;;;;;;5043835;28;20041;-40
2021/09/20 05:57:37;;;;;;;13.00;8.55;;;15.90;65.40;;;;;;5043701;28;20348;-40
2021/09/20 06:00:21;;;;;;;16.92;9.23;;;16.00;65.20;;;;;;5043455;28;20094;-40
2021/09/20 06:03:05;;;;;;;13.00;9.57;;;16.00;65.10;;;;;;5043958;28;20028;-41
2021/09/20 06:05:50;;;;;;;12.52;9.05;;;15.90;65.60;;;;;;5043638;28;20344;-41
2021/09/20 06:08:34;;;;;;;13.25;9.27;;;16.00;66.00;;;;;;5044038;28;20052;-40
2021/09/20 06:11:18;;;;;;;14.63;9.48;;;16.00;66.00;;;;;;5044037;28;20089;-40
2021/09/20 06:14:02;;;;;;;11.98;9.13;;;15.90;66.70;;;;;;5044025;28;20035;-40
2021/09/20 06:16:46;;;;;;;14.45;9.07;;;15.90;66.90;;;;;;5043027;28;20351;-40
2021/09/20 06:19:30;;;;;;;16.73;9.38;;;16.00;66.70;;;;;;5043699;28;20040;-40
2021/09/20 06:22:15;;;;;;;12.98;8.75;;;16.10;66.50;;;;;;5043808;28;20029;-40
2021/09/20 06:24:59;;;;;;;14.82;9.68;;;16.00;67.30;;;;;;5043383;28;20428;-40
2021/09/20 06:27:44;;;;;;;14.23;9.45;;;16.00;67.30;;;;;;5043464;28;20240;-40
2021/09/20 06:30:28;;;;;;;16.10;10.10;;;16.00;67.10;;;;;;5043347;28;20032;-40
2021/09/20 06:33:12;;;;;;;15.77;9.48;;;16.00;67.40;;;;;;5044016;28;20064;-40
2021/09/20 06:35:57;;;;;;;14.45;9.27;;;16.00;67.50;;;;;;5043594;28;20044;-40
2021/09/20 06:38:41;;;;;;;14.85;9.73;;;16.00;67.40;;;;;;5043656;28;20124;-40
2021/09/20 06:41:25;;;;;;;17.92;9.90;;;16.10;67.70;;;;;;5043207;28;20064;-40
2021/09/20 06:44:09;;;;;;;17.90;9.10;;;16.00;67.60;;;;;;5043869;28;20071;-40
2021/09/20 06:46:55;;;;;;;14.73;8.70;;;16.10;67.00;;;;;;5043559;28;20063;-40
2021/09/20 06:49:39;;;;;;;15.43;9.77;;;16.10;66.90;;;;;;5045968;28;20236;-40
2021/09/20 06:52:23;;;;;;;13.30;9.30;;;16.10;67.40;;;;;;5047458;28;20064;-40
2021/09/20 06:55:08;;;;;;;12.95;9.05;;;16.00;66.90;;;;;;5047238;28;20097;-40
2021/09/20 06:57:59;;;;;;;11.50;8.18;;;16.10;66.00;;;;;;5047088;28;20033;-40
2021/09/20 07:00:43;;;;;;;11.87;8.67;;;16.00;65.60;;;;;;5046920;28;20060;-40
2021/09/20 07:03:27;;;;;;;12.35;8.75;;;16.00;65.20;;;;;;5046826;28;20075;-40
2021/09/20 07:06:12;;;;;;;13.70;9.18;;;16.00;65.10;;;;;;5047409;28;20044;-40
2021/09/20 07:08:56;;;;;;;14.68;9.23;;;16.00;65.60;;;;;;5047033;28;20076;-40
2021/09/20 07:11:41;;;;;;;15.90;9.68;;;16.00;66.00;;;;;;5047115;28;20052;-40
2021/09/20 07:14:25;;;;;;;16.27;10.60;;;16.00;66.60;;;;;;5047308;28;20040;-40
2021/09/20 07:17:09;;;;;;;14.43;10.23;;;16.00;66.40;;;;;;5046792;28;20347;-40
2021/09/20 07:19:54;;;;;;;13.70;9.68;;;16.00;67.20;;;;;;5046604;28;20101;-40
2021/09/20 07:22:38;;;;;;;15.90;10.35;;;16.10;67.00;;;;;;5046812;28;20101;-40
2021/09/20 07:25:22;;;;;;;15.80;10.52;;;16.10;66.90;;;;;;5046841;28;20039;-40
2021/09/20 07:28:07;;;;;;;13.75;9.57;;;16.10;66.90;;;;;;5046439;28;20052;-39
2021/09/20 07:30:51;;;;;;;15.43;10.82;;;16.10;66.90;;;;;;5046605;28;20049;-40
2021/09/20 07:33:35;;;;;;;17.88;10.55;;;16.10;66.90;;;;;;5046462;28;20216;-40
2021/09/20 07:36:19;;;;;;;15.25;10.35;;;16.10;67.20;;;;;;5046488;28;20209;-40
2021/09/20 07:39:04;;;;;;;17.25;10.65;;;16.10;67.60;;;;;;5046843;28;20024;-42
2021/09/20 07:41:48;;;;;;;15.63;10.20;;;16.00;68.10;;;;;;5045616;28;20044;-39
2021/09/20 07:44:32;;;;;;;18.83;11.05;;;16.00;68.00;;;;;;5046715;28;20032;-40
2021/09/20 07:47:18;;;;;;;14.73;10.10;;;16.10;67.90;;;;;;5046310;28;20348;-40
2021/09/20 07:50:03;;;;;;;18.05;10.50;;;16.10;68.00;;;;;;5046689;28;20052;-40
2021/09/20 07:52:47;;;;;;;19.25;11.13;;;16.00;69.00;;;;;;5046111;28;20040;-40
2021/09/20 07:55:35;;;;;;;17.40;10.85;;;16.10;68.80;;;;;;5046351;28;20071;-40
2021/09/20 07:58:19;;;;;;;17.33;11.07;;;16.10;68.70;;;;;;5046292;28;20029;-40
2021/09/20 08:01:03;;;;;;;15.38;10.57;;;16.10;68.50;;;;;;5045646;28;20052;-40
2021/09/20 08:03:48;;;;;;;15.80;10.35;;;16.10;68.50;;;;;;5045981;28;20032;-40
2021/09/20 08:06:32;;;;;;;13.73;9.93;;;16.10;68.30;;;;;;5045987;28;20095;-40
2021/09/20 08:09:16;;;;;;;19.10;10.98;;;16.20;67.80;;;;;;5045886;28;20363;-41
2021/09/20 08:12:01;;;;;;;17.95;10.10;;;16.10;67.80;;;;;;5046310;28;20060;-40
2021/09/20 08:14:45;;;;;;;14.98;10.75;;;16.10;67.90;;;;;;5045866;28;20059;-40
2021/09/20 08:17:29;;;;;;;16.00;10.98;;;16.10;68.30;;;;;;5046009;28;20071;-40
2021/09/20 08:20:13;;;;;;;15.05;10.50;;;16.10;67.90;;;;;;5045941;28;20068;-40
2021/09/20 08:22:57;;;;;;;16.40;11.18;;;16.20;68.10;;;;;;5045905;28;20035;-40
2021/09/20 08:25:42;;;;;;;15.85;10.15;;;16.20;67.90;;;;;;5045572;28;20359;-40
2021/09/20 08:28:26;;;;;;;15.25;10.77;;;16.20;68.00;;;;;;5045730;28;20047;-40
2021/09/20 08:31:10;;;;;;;15.07;10.35;;;16.20;68.30;;;;;;5045318;28;20024;-39
2021/09/20 08:33:55;;;;;;;18.33;10.68;;;16.20;68.00;;;;;;5045296;28;20024;-41
2021/09/20 08:36:39;;;;;;;16.67;11.02;;;16.20;68.30;;;;;;5045132;28;20197;-41
2021/09/20 08:39:23;;;;;;;17.90;11.20;;;16.20;68.20;;;;;;5045035;28;20407;-41
2021/09/20 08:42:08;;;;;;;14.75;10.63;;;16.20;68.10;;;;;;5045633;28;20029;-40
2021/09/20 08:44:52;;;;;;;17.90;11.05;;;16.30;68.30;;;;;;5045340;28;20041;-41
2021/09/20 08:47:40;;;;;;;18.52;10.80;;;16.30;68.50;;;;;;5045527;28;20044;-40
2021/09/20 08:50:27;;;;;;;18.45;11.00;;;16.30;68.70;;;;;;5045552;28;20036;-39
2021/09/20 08:53:11;;;;;;;16.27;9.02;;;16.30;68.10;;;;;;5044955;28;20399;-41
2021/09/20 08:55:56;;;;;;;14.00;8.45;;;16.30;67.30;;;;;;5045333;28;20209;-39
2021/09/20 08:58:40;;;;;;;12.82;8.27;;;16.10;66.70;;;;;;5044984;28;20040;-40
2021/09/20 09:01:24;;;;;;;14.02;8.32;;;16.20;66.40;;;;;;5044711;28;20032;-39
2021/09/20 09:04:27;;;;;;;16.75;9.05;;;16.10;66.80;;;;;;5043878;28;20099;-39
2021/09/20 09:07:14;;;;;;;14.20;9.05;;;16.20;66.70;;;;;;5044801;28;20051;-40
2021/09/20 09:09:58;;;;;;;13.98;9.85;;;16.20;67.30;;;;;;5044701;28;20036;-39
2021/09/20 09:12:42;;;;;;;14.05;9.60;;;16.20;67.00;;;;;;5044407;28;20036;-39
2021/09/20 09:15:27;;;;;;;19.08;10.80;;;16.10;67.20;;;;;;5044566;28;20025;-39
2021/09/20 09:18:11;;;;;;;15.43;10.02;;;16.20;68.20;;;;;;5045118;28;20055;-39
2021/09/20 09:20:55;;;;;;;15.40;10.27;;;16.30;69.00;;;;;;5044613;28;20237;-42
2021/09/20 09:23:39;;;;;;;15.48;10.40;;;16.30;69.50;;;;;;5044462;28;20371;-39
2021/09/20 09:26:23;;;;;;;15.18;10.35;;;16.30;69.00;;;;;;5044744;28;20044;-39
2021/09/20 09:29:12;;;;;;;15.20;10.32;;;16.40;68.70;;;;;;5044714;28;20025;-41
2021/09/20 09:31:57;;;;;;;15.07;9.57;;;16.40;68.80;;;;;;5044853;28;20068;-39
2021/09/20 09:34:42;;;;;;;17.35;9.35;;;16.40;68.80;;;;;;5044405;28;20028;-39
2021/09/20 09:37:26;;;;;;;12.40;8.30;;;16.50;68.10;;;;;;5015787;28;20029;-39
2021/09/20 09:40:20;;;;;;;14.30;8.23;;;16.60;68.30;;;;;;5044136;28;20416;-39
2021/09/20 09:43:04;;;;;;;14.77;8.68;;;16.50;68.00;;;;;;5044226;28;20036;-39
2021/09/20 09:45:49;;;;;;;13.50;8.15;;;16.60;68.40;;;;;;5043991;28;20360;-39
2021/09/20 09:48:33;;;;;;;13.35;7.80;;;16.70;68.70;;;;;;5043924;28;20402;-40
2021/09/20 09:51:18;;;;;;;11.82;7.90;;;16.80;68.80;;;;;;5043912;28;20024;-40
2021/09/20 09:54:07;;;;;;;15.90;7.70;;;16.80;67.50;;;;;;5044235;28;20056;-39
2021/09/20 09:57:08;;;;;;;12.43;8.15;;;16.80;68.10;;;;;;5043988;28;20371;-39
2021/09/20 10:00:01;;;;;;;12.27;7.97;;;16.90;68.20;;;;;;5042957;28;20072;-40
2021/09/20 10:02:48;;;;;;;10.95;7.60;;;17.00;68.20;;;;;;5043866;28;20040;-40
2021/09/20 10:05:32;;;;;;;11.88;8.02;;;17.10;68.00;;;;;;5044366;28;20071;-40
2021/09/20 10:08:16;;;;;;;12.73;8.27;;;17.10;67.10;;;;;;5043736;28;20378;-40
2021/09/20 10:11:00;;;;;;;11.45;8.18;;;17.30;66.90;;;;;;5043913;28;20083;-40
2021/09/20 10:13:45;;;;;;;11.32;7.53;;;17.30;67.50;;;;;;5043560;28;20024;-41
2021/09/20 10:16:31;;;;;;;10.80;7.60;;;17.30;66.60;;;;;;5042832;28;20044;-39
2021/09/20 10:19:15;;;;;;;9.25;6.93;;;17.40;66.90;;;;;;5043385;28;20028;-40
2021/09/20 10:21:59;;;;;;;11.68;7.00;;;17.40;66.70;;;;;;5043705;28;20276;-40
2021/09/20 10:24:45;;;;;;;9.50;6.72;;;17.30;65.60;;;;;;5050358;28;20351;-39
2021/09/20 10:27:30;;;;;;;12.43;7.28;;;17.40;66.30;;;;;;5050003;28;20024;-40
2021/09/20 10:30:34;;;;;;;11.23;6.72;;;17.50;66.60;;;;;;5050458;28;20093;-40
2021/09/20 10:33:24;;;;;;;10.65;7.15;;;17.50;66.20;;;;;;5049605;28;20044;-39
2021/09/20 10:36:08;;;;;;;12.75;6.80;;;17.50;65.80;;;;;;5036396;28;20052;-40
2021/09/20 10:38:53;;;;;;;10.55;6.80;;;17.50;66.00;;;;;;5049213;28;20383;-40
2021/09/20 10:41:37;;;;;;;8.70;6.25;;;17.60;65.10;;;;;;5050455;28;20068;-39
2021/09/20 10:44:21;;;;;;;11.73;5.95;;;17.50;65.50;;;;;;5050306;28;20060;-40
2021/09/20 10:47:13;;;;;;;9.45;5.85;;;17.60;65.20;;;;;;5035063;28;20036;-40
2021/09/20 10:49:58;;;;;;;12.18;6.93;;;17.80;65.60;;;;;;5049920;28;20048;-40
2021/09/20 10:53:22;;;;;;;9.38;6.28;;;17.80;65.50;;;;;;5049999;28;20213;-40
2021/09/20 10:56:07;;;;;;;10.00;6.10;;;17.90;63.50;;;;;;5049866;28;20035;-40
2021/09/20 10:58:51;;;;;;;9.18;6.22;;;18.10;63.90;;;;;;5050168;28;20093;-40
2021/09/20 11:01:37;;;;;;;8.52;5.90;;;18.20;63.10;;;;;;5049816;28;20104;-40
2021/09/20 11:04:26;;;;;;;8.57;5.22;;;18.30;63.90;;;;;;5049809;28;20036;-40
2021/09/20 11:07:18;;;;;;;8.23;5.43;;;18.30;61.70;;;;;;5049734;28;20087;-40
2021/09/20 11:10:07;;;;;;;8.45;5.82;;;18.30;61.40;;;;;;5049730;28;20113;-40
2021/09/20 11:12:56;;;;;;;8.32;6.13;;;18.30;60.50;;;;;;5048723;28;20224;-40
2021/09/20 11:15:42;;;;;;;7.82;5.50;;;18.30;60.80;;;;;;5049674;28;20355;-40
2021/09/20 11:18:33;;;;;;;8.80;5.88;;;18.40;60.50;;;;;;5049576;28;20071;-40
2021/09/20 11:21:17;;;;;;;7.77;5.73;;;18.40;60.10;;;;;;5049786;28;20092;-40
2021/09/20 11:24:14;;;;;;;8.43;5.72;;;18.40;59.20;;;;;;5048899;28;20379;-40
2021/09/20 11:26:58;;;;;;;8.15;5.65;;;18.40;59.50;;;;;;5049977;28;20040;-40
2021/09/20 11:29:44;;;;;;;7.72;5.60;;;18.50;59.70;;;;;;5049562;28;20391;-40
2021/09/20 11:32:28;;;;;;;7.88;5.88;;;18.40;58.80;;;;;;5049036;28;20039;-40
2021/09/20 11:35:12;;;;;;;7.93;5.85;;;18.40;58.40;;;;;;5047018;28;20048;-40
2021/09/20 11:37:59;;;;;;;7.40;5.53;;;18.40;59.20;;;;;;5045830;28;20037;-40
2021/09/20 11:40:43;;;;;;;8.40;5.43;;;18.40;58.00;;;;;;5046369;28;20075;-40
2021/09/20 11:43:28;;;;;;;8.88;5.35;;;18.30;57.60;;;;;;5046543;28;20075;-40
2021/09/20 11:46:27;;;;;;;10.65;5.70;;;18.30;58.20;;;;;;5046376;28;20205;-40
2021/09/20 11:49:15;;;;;;;7.35;5.53;;;18.30;58.20;;;;;;5039856;28;20044;-40
2021/09/20 11:52:01;;;;;;;9.02;5.85;;;18.40;58.30;;;;;;5046011;28;20064;-40
2021/09/20 11:54:48;;;;;;;7.57;5.88;;;18.30;58.20;;;;;;5045827;28;20093;-40
2021/09/20 11:57:35;;;;;;;8.05;5.47;;;18.40;58.90;;;;;;5045804;28;20033;-40
2021/09/20 12:00:21;;;;;;;8.45;5.72;;;18.40;58.40;;;;;;5046010;28;20387;-40
2021/09/20 12:03:08;;;;;;;13.75;6.40;;;18.40;58.50;;;;;;5045874;28;20029;-40
2021/09/20 12:05:52;;;;;;;8.10;5.93;;;18.40;58.50;;;;;;5046173;28;20036;-42
2021/09/20 12:08:36;;;;;;;9.52;6.40;;;18.40;59.40;;;;;;5045766;28;20068;-42
2021/09/20 12:11:22;;;;;;;9.35;5.90;;;18.40;59.20;;;;;;5045688;28;20264;-42
2021/09/20 12:14:10;;;;;;;9.32;6.28;;;18.40;58.60;;;;;;5045609;28;20028;-43
2021/09/20 12:16:57;;;;;;;7.85;5.85;;;18.40;58.60;;;;;;5046018;28;20060;-42
2021/09/20 12:19:53;;;;;;;12.35;6.50;;;18.40;58.80;;;;;;5045566;28;20080;-43
2021/09/20 12:22:40;;;;;;;10.60;6.18;;;18.40;59.00;;;;;;5044588;28;20052;-42
2021/09/20 12:25:25;;;;;;;10.55;6.50;;;18.40;59.50;;;;;;5045208;28;20072;-43
2021/09/20 12:28:19;;;;;;;10.13;6.07;;;18.50;59.10;;;;;;5045665;28;20044;-43
2021/09/20 12:31:10;;;;;;;10.27;6.20;;;18.60;59.20;;;;;;5045804;28;20431;-45
2021/09/20 12:34:16;;;;;;;10.20;5.70;;;18.60;58.80;;;;;;5045348;28;20076;-42
2021/09/20 12:37:02;;;;;;;9.52;6.05;;;18.70;59.00;;;;;;5045217;28;20047;-44
2021/09/20 12:39:46;;;;;;;8.93;6.25;;;18.70;59.20;;;;;;5045065;28;20108;-42
2021/09/20 12:42:30;;;;;;;10.43;6.22;;;18.80;59.00;;;;;;5030232;28;20347;-43
2021/09/20 12:45:19;;;;;;;8.45;6.15;;;18.80;58.00;;;;;;5045007;28;20094;-41
2021/09/20 12:48:03;;;;;;;10.40;6.10;;;18.80;58.50;;;;;;5044236;28;20052;-41
2021/09/20 12:50:48;;;;;;;10.65;6.15;;;18.80;57.50;;;;;;5045120;28;20110;-41
2021/09/20 12:53:40;;;;;;;8.75;6.03;;;18.80;57.60;;;;;;5044957;28;20024;-41
2021/09/20 12:56:42;;;;;;;7.95;5.65;;;18.90;57.80;;;;;;5043807;28;20432;-40
2021/09/20 12:59:33;;;;;;;11.65;5.53;;;18.90;58.20;;;;;;5045021;28;20063;-41
2021/09/20 13:02:17;;;;;;;7.70;5.72;;;18.80;56.60;;;;;;5044768;28;20027;-41
2021/09/20 13:05:02;;;;;;;8.15;5.38;;;18.90;56.40;;;;;;5045126;28;20039;-41
2021/09/20 13:07:46;;;;;;;8.57;5.55;;;18.90;56.80;;;;;;5044907;28;20037;-40
2021/09/20 13:10:31;;;;;;;11.05;5.63;;;19.00;56.90;;;;;;5043857;28;20091;-40
2021/09/20 13:13:33;;;;;;;11.40;6.72;;;19.10;57.20;;;;;;5045158;28;20225;-42
2021/09/20 13:16:17;;;;;;;;;;;19.10;57.30;;;;;;5045515;28;20071;-40
2021/09/20 13:19:05;;;;;;;8.23;6.10;;;19.10;56.00;;;;;;5044018;28;19969;-42
2021/09/20 13:22:06;;;;;;;10.85;6.15;;;19.00;56.80;;;;;;5045075;28;20041;-45
2021/09/20 13:24:50;;;;;;;10.93;6.30;;;19.10;55.80;;;;;;5043457;28;20076;-41
2021/09/20 13:27:34;;;;;;;11.50;6.03;;;19.20;56.20;;;;;;5043201;28;20271;-40
2021/09/20 13:30:18;;;;;;;7.85;5.85;;;19.20;55.90;;;;;;5044656;28;20068;-40
2021/09/20 13:33:02;;;;;;;11.18;6.78;;;19.30;56.70;;;;;;5044213;28;20037;-40
2021/09/20 13:35:49;;;;;;;10.40;7.07;;;19.20;55.70;;;;;;5044377;28;20400;-41
2021/09/20 13:38:33;;;;;;;9.60;6.38;;;19.00;54.80;;;;;;5044445;28;20087;-40
2021/09/20 13:41:18;;;;;;;8.35;6.10;;;19.10;55.70;;;;;;5043793;28;20035;-41
2021/09/20 13:44:02;;;;;;;9.05;6.15;;;19.10;56.00;;;;;;5044619;28;20036;-40
2021/09/20 13:46:46;;;;;;;7.72;6.05;;;19.10;55.00;;;;;;5044379;28;20031;-40
2021/09/20 13:49:30;;;;;;;11.15;6.10;;;19.10;56.10;;;;;;5043997;28;20032;-41
2021/09/20 13:52:14;;;;;;;8.82;5.50;;;19.10;54.80;;;;;;5044392;28;20343;-40
2021/09/20 13:54:59;;;;;;;8.40;5.63;;;19.10;55.20;;;;;;5043975;28;20032;-40
2021/09/20 13:57:43;;;;;;;8.27;5.93;;;19.00;54.80;;;;;;5043504;28;20356;-41
2021/09/20 14:00:27;;;;;;;10.02;6.55;;;19.00;54.30;;;;;;5043728;28;20091;-40
2021/09/20 14:03:12;;;;;;;8.20;5.50;;;19.00;54.10;;;;;;5043830;28;20052;-40
2021/09/20 14:05:56;;;;;;;8.75;5.55;;;19.00;54.10;;;;;;5043969;28;20090;-40
2021/09/20 14:08:40;;;;;;;9.85;6.68;;;19.00;54.20;;;;;;5043765;28;20041;-40
2021/09/20 14:11:24;;;;;;;10.98;7.03;;;19.00;54.20;;;;;;5043725;28;20088;-41
2021/09/20 14:14:10;;;;;;;9.55;6.97;;;19.00;55.30;;;;;;5043596;28;20093;-40